Mount Wilson, California
Current Conditions -  °F | °C
As of 4:47 PM on Thursday 27 Nov 2014 (Local Time) from KEMT Reporting Station
Clear Clear  
Wind Chill: 82°   Ceiling: Unl
Heat Index: 82°   Visibility: 10mi
Dew Point: 36°   Wind: 5mph
Humidity: 19%   Direction: 220°SW
Pressure: 30.01"   Gusts: NA
Location:  34.23°N, 118.07°W
Report Text: KEMT 280047Z 22004KT 10SM CLR 28/02 A3001
Loading
Personal Weather Stations






























Interactive Weather Map New forecast layout! Learn more

10-Day Weather Forecast

Advertisements
Track Severe Weather on mobile